ADDS METAR Data INFO
IDs: Format: Raw Decoded Include TAF

Data at: 0058 UTC 24 Aug 2017

K0F2 240055Z AUTO 00000KT 10SM CLR 23/21 A2997 RMK AO2 P0004 T02270210 TSNO
K0F2 240035Z AUTO 27003KT 10SM -DZ SCT032 SCT041 SCT050 23/21 A2996 RMK AO2 P0004 T02310211 TSNO
K0F2 240015Z AUTO 31005KT 10SM -RA SCT027 BKN043 OVC100 23/22 A2997 RMK AO2 P0004 T02260215 TSNO
K0F2 232355Z AUTO 01011G19KT 10SM SCT025 BKN041 OVC095 24/20 A2996 RMK AO2 60028 T02370196 10291 20237 TSNO
K0F2 232335Z AUTO 11003KT 10SM SCT041 BKN046 BKN055 28/23 A2995 RMK AO2 T02770229 TSNO
K0F2 232315Z AUTO 00000KT 10SM SCT040 28/23 A2995 RMK AO2 T02780231 TSNO
K0F2 232255Z AUTO 12003KT 10SM SCT042 SCT050 29/23 A2996 RMK AO2 T02860234 TSNO
K0F2 232235Z AUTO 16003KT 10SM SCT042 BKN050 29/23 A2996 RMK AO2 T02880231 TSNO
K0F2 232215Z AUTO 15003KT 10SM SCT034 SCT042 SCT080 29/23 A2997 RMK AO2 T02870229 TSNO
K0F2 232155Z AUTO 00000KT 10SM SCT029 SCT036 SCT043 27/23 A2997 RMK AO2 P0001 T02710228 TSNO
K0F2 232135Z AUTO 17004KT 7SM -RA SCT027 SCT045 BKN075 26/23 A2997 RMK AO2 P0001 T02600227 TSNO
K0F2 232115Z AUTO 19003KT 10SM SCT075 27/23 A2999 RMK AO2 T02690232 TSNO
K0F2 232055Z AUTO 00000KT 10SM -RA SCT002 SCT007 BKN041 25/22 A2999 RMK AO2 P0027 60027 T02450223 TSNO
K0F2 232035Z AUTO 01010G15KT 10SM RA SCT030 BKN042 OVC090 28/22 A3000 RMK AO2 P0002 T02800220 TSNO
K0F2 232015Z AUTO 33003KT 10SM SCT028 BKN050 BKN080 28/21 A3000 RMK AO2 T02820214 TSNO
K0F2 231955Z AUTO 31004KT 10SM SCT026 BKN033 OVC080 28/22 A3001 RMK AO2 T02780220 TSNO
K0F2 231935Z AUTO 34003KT 10SM BKN033 BKN038 BKN110 28/22 A3002 RMK AO2 T02770218 TSNO
K0F2 231915Z AUTO 00000KT 10SM SCT027 BKN031 BKN110 28/22 A3003 RMK AO2 T02800221 TSNO
K0F2 231855Z AUTO 28003KT 10SM SCT027 28/22 A3004 RMK AO2 T02790219 TSNO
K0F2 231835Z AUTO 00000KT 10SM BKN024 OVC029 27/21 A3005 RMK AO2 T02730214 TSNO
K0F2 231815Z AUTO 00000KT 10SM BKN022 OVC032 27/22 A3005 RMK AO2 T02730220 TSNO
K0F2 231755Z AUTO 00000KT 10SM SCT020 BKN032 BKN060 27/22 A3006 RMK AO2 T02690218 10269 20216 TSNO
K0F2 231735Z AUTO 00000KT 10SM SCT032 SCT110 26/22 A3007 RMK AO2 T02620215 TSNO
K0F2 231715Z AUTO 15005KT 10SM SCT016 SCT030 BKN110 26/22 A3007 RMK AO2 T02590218 TSNO
K0F2 231655Z AUTO 00000KT 10SM SCT016 SCT030 26/22 A3008 RMK AO2 T02550218 TSNO
K0F2 231635Z AUTO 00000KT 10SM BKN012 25/22 A3008 RMK AO2 T02480216 TSNO
K0F2 231615Z AUTO 00000KT 10SM BKN012 25/22 A3008 RMK AO2 T02460218 TSNO
K0F2 231555Z AUTO 00000KT 10SM OVC010 24/22 A3008 RMK AO2 T02420218 TSNO
K0F2 231535Z AUTO 00000KT 10SM BKN010 OVC100 24/22 A3008 RMK AO2 T02380218 TSNO
K0F2 231515Z AUTO 00000KT 10SM BKN012 BKN100 24/22 A3008 RMK AO2 T02350216 TSNO
K0F2 231455Z AUTO 00000KT 10SM SCT007 OVC012 23/22 A3008 RMK AO2 T02290218 TSNO
K0F2 231435Z AUTO 00000KT 10SM OVC007 23/22 A3007 RMK AO2 T02250218 TSNO
K0F2 231415Z AUTO 00000KT 10SM OVC007 22/22 A3007 RMK AO2 T02220217 TSNO
K0F2 231355Z AUTO 08003KT 10SM OVC005 22/22 A3007 RMK AO2 T02210217 TSNO
K0F2 231335Z AUTO 00000KT 10SM OVC005 22/22 A3007 RMK AO2 T02210218 TSNO
K0F2 231315Z AUTO 00000KT 10SM OVC007 22/22 A3006 RMK AO2 T02200217 TSNO
K0F2 231255Z AUTO 04004KT 10SM BKN007 OVC075 22/22 A3006 RMK AO2 T02190215 TSNO
K0F2 231235Z AUTO 00000KT 10SM SCT006 BKN075 22/22 A3006 RMK AO2 T02200216 TSNO
K0F2 231215Z AUTO 02004KT 10SM BKN006 OVC110 22/22 A3005 RMK AO2 T02180215 TSNO
K0F2 231155Z AUTO 02003KT 10SM BKN002 BKN090 OVC110 22/22 A3005 RMK AO2 60041 70136 T02170215 10222 20215 TSNO
K0F2 231135Z AUTO 00000KT 10SM OVC110 22/21 A3003 RMK AO2 T02150213 TSNO
K0F2 231115Z AUTO 00000KT 10SM SCT100 BKN120 22/22 A3003 RMK AO2 T02160215 TSNO
K0F2 231055Z AUTO 00000KT 10SM -RA CLR 22/22 A3004 RMK AO2 T02160215 TSNO
K0F2 231035Z AUTO 00000KT 10SM CLR 22/22 A3004 RMK AO2 T02160215 TSNO
K0F2 231015Z AUTO 13003KT 10SM -DZ SCT035 SCT043 SCT050 22/21 A3003 RMK AO2 T02160214 TSNO
K0F2 230955Z AUTO 00000KT 7SM -RA SCT035 BKN047 OVC085 22/22 A3004 RMK AO2 P0013 T02160215 TSNO
K0F2 230935Z AUTO 00000KT 4SM RA SCT050 BKN070 OVC085 22/21 A3004 RMK AO2 P0010 T02160213 TSNO
K0F2 230915Z AUTO 21004KT 7SM RA SCT031 BKN050 OVC075 22/21 A3006 RMK AO2 P0005 T02160213 TSNO
K0F2 230855Z AUTO 00000KT 7SM RA SCT060 BKN075 OVC120 22/21 A3007 RMK AO2 P0002 60028 T02190214 TSNO
K0F2 230835Z AUTO 00000KT 10SM SCT080 OVC110 22/21 A3007 RMK AO2 T02170212 TSNO
K0F2 230815Z AUTO 02005KT 10SM -DZ SCT065 SCT075 BKN110 22/21 A3007 RMK AO2 T02160211 TSNO
K0F2 230755Z AUTO 02008KT 10SM -RA SCT050 OVC065 22/21 A3006 RMK AO2 P0010 T02160212 TSNO
K0F2 230735Z AUTO 03005KT 7SM RA BKN070 OVC085 22/21 A3006 RMK AO2 P0008 T02160212 TSNO
K0F2 230715Z AUTO 04005KT 5SM RA SCT044 SCT060 OVC070 22/21 A3007 RMK AO2 P0005 T02160212 TSNO
K0F2 230655Z AUTO 04005KT 5SM RA SCT039 BKN050 OVC070 22/21 A3008 RMK AO2 P0016 T02170213 TSNO
K0F2 230635Z AUTO 03005KT 7SM RA SCT008 BKN038 OVC055 22/22 A3009 RMK AO2 P0010 T02200215 TSNO
K0F2 230615Z AUTO 35004KT 5SM RA SCT008 BKN034 OVC040 22/22 A3011 RMK AO2 P0004 T02220216 TSNO
K0F2 230555Z AUTO 02006KT 1 3/4SM +RA BKN015 OVC022 22/22 A3011 RMK AO2 P0083 60093 T02210217 10316 20221 403440220 TSNO
K0F2 230535Z AUTO 36006KT 1 1/2SM +RA SCT008 BKN013 OVC019 23/22 A3012 RMK AO2 P0039 T02250217 TSNO
K0F2 230515Z AUTO 34006G18KT 10SM -RA SCT012 BKN041 OVC048 23/22 A3010 RMK AO2 P0001 T02320220 TSNO
K0F2 230455Z AUTO 34011G15KT 7SM +RA SCT035 BKN042 OVC050 24/23 A3007 RMK AO2 P0009 T02400226 TSNO
K0F2 230435Z AUTO 34007G17KT 300V010 10SM -RA SCT041 SCT055 OVC065 24/22 A3007 RMK AO2 P0002 T02410221 TSNO
K0F2 230415Z AUTO 34012G17KT 10SM RA OVC070 27/22 A3004 RMK AO2 T02680216 TSNO
K0F2 230355Z AUTO 30011KT 10SM BKN070 BKN100 BKN120 28/21 A3004 RMK AO2 T02800209 TSNO
K0F2 230335Z AUTO 00000KT 10SM SCT100 SCT120 27/23 A3002 RMK AO2 T02720228 TSNO
K0F2 230315Z AUTO 00000KT 10SM SCT110 27/24 A3002 RMK AO2 T02740236 TSNO
K0F2 230255Z AUTO 00000KT 10SM SCT110 28/23 A3002 RMK AO2 T02800225 TSNO
K0F2 230235Z AUTO 00000KT 10SM SCT110 28/24 A3001 RMK AO2 T02760236 TSNO
K0F2 230215Z AUTO 00000KT 10SM CLR 28/24 A3001 RMK AO2 T02760236 TSNO
K0F2 230155Z AUTO 00000KT 10SM CLR 27/23 A3000 RMK AO2 T02740232 TSNO
K0F2 230135Z AUTO 00000KT 10SM CLR 28/23 A2998 RMK AO2 T02790232 TSNO
K0F2 230115Z AUTO 00000KT 10SM CLR 28/23 A2998 RMK AO2 T02770230 TSNO
K0F2 230055Z AUTO 00000KT 10SM CLR 29/23 A2999 RMK AO2 T02850228 TSNO
K0F2 230035Z AUTO 00000KT 10SM CLR 29/23 A2999 RMK AO2 T02900230 TSNO
K0F2 230015Z AUTO 00000KT 10SM CLR 30/22 A3000 RMK AO2 T02990224 TSNO
K0F2 222355Z AUTO 00000KT 10SM CLR 32/22 A2999 RMK AO2 T03180219 10344 20281 TSNO
K0F2 222335Z AUTO 00000KT 10SM CLR 32/21 A2999 RMK AO2 T03180212 TSNO
K0F2 222315Z AUTO 00000KT 10SM CLR 32/21 A2999 RMK AO2 T03150210 TSNO
K0F2 222255Z AUTO 00000KT 10SM CLR 31/20 A2999 RMK AO2 T03140202 TSNO
K0F2 222235Z AUTO 00000KT 10SM CLR 31/19 A2999 RMK AO2 T03050190 TSNO
K0F2 222215Z AUTO 23004KT 10SM CLR 30/18 A2999 RMK AO2 T02990183 TSNO
K0F2 222155Z AUTO 25007KT 10SM SCT090 SCT120 29/21 A3001 RMK AO2 T02900207 TSNO
K0F2 222135Z AUTO 20005KT 1SM -RA BKN120 29/22 A3001 RMK AO2 VIS M1/4V5 T02940223 TSNO
K0F2 222115Z AUTO 00000KT 10SM CLR 30/22 A3002 RMK AO2 T02990219 TSNO
K0F2 222055Z AUTO 16005KT 10SM SCT120 29/20 A3002 RMK AO2 T02940200 TSNO
K0F2 222035Z AUTO 13009G19KT 10SM SCT100 29/20 A3003 RMK AO2 T02910197 TSNO
K0F2 222015Z AUTO 14008G16KT 10SM SCT100 31/20 A3004 RMK AO2 T03110198 TSNO
K0F2 221955Z AUTO 00000KT 10SM CLR 33/21 A3004 RMK AO2 T03290205 TSNO
K0F2 221935Z AUTO 00000KT 10SM SCT050 SCT070 SCT090 34/21 A3005 RMK AO2 T03360206 TSNO
K0F2 221915Z AUTO 21006KT 10SM BKN050 34/21 A3005 RMK AO2 T03430208 TSNO
K0F2 221855Z AUTO 32003KT 10SM SCT050 34/21 A3006 RMK AO2 T03360209 TSNO
K0F2 221835Z AUTO 26004KT 10SM SCT050 34/21 A3006 RMK AO2 T03370211 TSNO
K0F2 221815Z AUTO 00000KT 10SM CLR 33/21 A3006 RMK AO2 T03290208 TSNO
K0F2 221755Z AUTO 00000KT 10SM CLR 33/21 A3007 RMK AO2 T03290211 10329 20220 TSNO
K0F2 221735Z AUTO 26006KT 10SM CLR 33/22 A3008 RMK AO2 T03290219 TSNO
K0F2 221715Z AUTO 00000KT 10SM CLR 32/21 A3008 RMK AO2 T03200210 TSNO
K0F2 221655Z AUTO 23003KT 10SM CLR 32/22 A3009 RMK AO2 T03160217 TSNO
K0F2 221635Z AUTO 22005KT 10SM CLR 31/21 A3009 RMK AO2 T03120214 TSNO
K0F2 221615Z AUTO 23004KT 10SM CLR 31/22 A3009 RMK AO2 T03110219 TSNO
K0F2 221555Z AUTO 22008KT 10SM CLR 31/22 A3009 RMK AO2 T03080219 TSNO
K0F2 221535Z AUTO 22007KT 10SM CLR 30/22 A3008 RMK AO2 T03030218 TSNO
K0F2 221515Z AUTO 23006KT 10SM CLR 30/22 A3008 RMK AO2 T02960216 TSNO
K0F2 221455Z AUTO 21006KT 10SM CLR 29/22 A3008 RMK AO2 T02900218 TSNO
K0F2 221435Z AUTO 22006KT 10SM CLR 28/22 A3008 RMK AO2 T02810216 TSNO
K0F2 221415Z AUTO 21006KT 10SM CLR 27/22 A3007 RMK AO2 T02730217 TSNO
K0F2 221355Z AUTO 18004KT 10SM CLR 26/22 A3007 RMK AO2 T02610216 TSNO
K0F2 221335Z AUTO 17004KT 10SM CLR 25/22 A3007 RMK AO2 T02500216 TSNO
K0F2 221315Z AUTO 18004KT 10SM CLR 24/21 A3007 RMK AO2 T02430214 TSNO